Time;durP1;ratioP1;P1;durP2;ratioP2;P2;SDS_P1;SDS_P2;PMS_P1;PMS_P2;Temp;Humidity;BMP_temperature;BMP_pressure;BME280_temperature;BME280_humidity;BME280_pressure;Samples;Min_cycle;Max_cycle;Signal;HPM_P1;HPM_P2
2022/03/11 00:00:42;;;;;;;1.73;1.13;;;2.30;99.90;;;-143.19;100.00;53775.09;4953759;28;20237;-75
2022/03/11 00:03:12;;;;;;;2.58;1.48;;;2.00;99.90;;;-143.19;100.00;53775.09;4963619;28;20209;-75
2022/03/11 00:05:41;;;;;;;2.00;1.30;;;2.00;99.90;;;-143.19;100.00;53775.09;4972504;28;20245;-75
2022/03/11 00:08:09;;;;;;;2.00;1.20;;;2.00;99.90;;;-143.19;100.00;53775.09;4952877;28;20221;-75
2022/03/11 00:10:38;;;;;;;2.88;1.58;;;1.90;99.90;;;-143.19;100.00;53775.09;4968124;28;20259;-75
2022/03/11 00:13:06;;;;;;;1.00;0.85;;;1.90;99.90;;;-143.19;100.00;53775.09;4966184;28;20568;-75
2022/03/11 00:15:34;;;;;;;1.92;1.17;;;2.00;99.90;;;-143.19;100.00;53775.09;4937755;28;20289;-76
2022/03/11 00:18:03;;;;;;;2.47;1.67;;;1.90;99.90;;;-143.19;100.00;53775.09;4953737;28;20205;-75
2022/03/11 00:20:31;;;;;;;3.92;2.53;;;1.80;99.90;;;-143.19;100.00;53775.09;4968668;28;20624;-75
2022/03/11 00:23:01;;;;;;;2.58;1.52;;;1.90;99.90;;;-143.19;100.00;53775.09;4961779;28;20209;-74
2022/03/11 00:25:31;;;;;;;1.83;1.13;;;1.80;99.90;;;-143.19;100.00;53775.09;4969294;28;20263;-74
2022/03/11 00:27:59;;;;;;;2.92;1.60;;;2.50;99.90;;;-143.19;100.00;53775.09;4955466;28;20220;-74
2022/03/11 00:30:29;;;;;;;1.90;1.20;;;1.80;99.90;;;-143.19;100.00;53775.09;4963193;28;20241;-74
2022/03/11 00:32:57;;;;;;;1.45;1.02;;;1.70;99.90;;;-143.19;100.00;53775.09;4933655;28;20220;-73
2022/03/11 00:35:25;;;;;;;3.20;1.83;;;1.90;99.90;;;-143.19;100.00;53775.09;4967060;28;20217;-73
2022/03/11 00:37:53;;;;;;;1.92;1.20;;;1.80;99.90;;;-143.19;100.00;53775.09;4967450;28;20239;-74
2022/03/11 00:40:21;;;;;;;2.10;1.25;;;1.70;99.90;;;-143.19;100.00;53775.09;4951711;28;20244;-74
2022/03/11 00:42:49;;;;;;;2.13;1.25;;;1.60;99.90;;;-143.19;100.00;53775.09;4955714;28;20201;-74
2022/03/11 00:45:17;;;;;;;1.05;0.80;;;1.80;99.90;;;-143.19;100.00;53775.09;4970293;28;20233;-74
2022/03/11 00:47:45;;;;;;;0.82;0.77;;;1.90;99.90;;;-143.19;100.00;53775.09;4971034;28;20209;-74
2022/03/11 00:50:14;;;;;;;3.28;1.70;;;1.60;99.90;;;-143.19;100.00;53775.09;4960749;28;20240;-74
2022/03/11 00:52:42;;;;;;;1.20;0.90;;;1.50;99.90;;;-143.19;100.00;53775.09;4969937;28;20209;-75
2022/03/11 00:55:11;;;;;;;2.03;1.30;;;1.40;99.90;;;-143.19;100.00;53775.09;4952231;28;20650;-75
2022/03/11 00:57:39;;;;;;;1.15;0.90;;;1.40;99.90;;;-143.19;100.00;53775.09;4971242;28;20224;-75
2022/03/11 01:00:08;;;;;;;1.88;1.20;;;1.50;99.90;;;-143.19;100.00;53775.09;4970056;28;20698;-77
2022/03/11 01:02:38;;;;;;;1.70;1.08;;;1.50;99.90;;;-143.19;100.00;53775.09;4951453;28;20287;-75
2022/03/11 01:05:08;;;;;;;1.15;0.80;;;1.40;99.90;;;-143.19;100.00;53775.09;4971545;28;20209;-75
2022/03/11 01:07:37;;;;;;;2.47;1.55;;;1.30;99.90;;;-143.19;100.00;53775.09;4952206;28;20212;-77
2022/03/11 01:10:07;;;;;;;2.13;1.40;;;2.00;99.90;;;-143.19;100.00;53775.09;4952651;28;20229;-76
2022/03/11 01:12:37;;;;;;;2.03;1.17;;;1.20;99.90;;;-143.19;100.00;53775.09;4971136;28;20213;-76
2022/03/11 01:15:08;;;;;;;1.67;1.10;;;1.10;99.90;;;-143.19;100.00;53775.09;4969467;28;20213;-75
2022/03/11 01:17:37;;;;;;;2.35;1.45;;;1.20;99.90;;;-143.19;100.00;53775.09;4972075;28;20208;-75
2022/03/11 01:20:07;;;;;;;1.27;0.95;;;1.30;99.90;;;-143.19;100.00;53775.09;4972162;28;20244;-76
2022/03/11 01:22:35;;;;;;;1.25;0.95;;;1.20;99.90;;;-143.19;100.00;53775.09;4969549;28;20205;-77
2022/03/11 01:25:05;;;;;;;2.47;1.60;;;1.30;99.90;;;-143.19;100.00;53775.09;4970534;28;20209;-75
2022/03/11 01:27:34;;;;;;;1.90;1.80;;;1.20;99.90;;;-143.19;100.00;53775.09;4974664;28;20236;-75
2022/03/11 01:30:03;;;;;;;1.38;1.00;;;1.20;99.90;;;-143.19;100.00;53775.09;4958346;28;20244;-75
2022/03/11 01:32:31;;;;;;;1.48;1.38;;;1.20;99.90;;;-143.19;100.00;53775.09;4950173;28;20224;-75
2022/03/11 01:34:59;;;;;;;1.83;1.30;;;1.30;99.90;;;-143.19;100.00;53775.09;4950188;29;20778;-75
2022/03/11 01:37:27;;;;;;;1.65;1.08;;;2.00;99.90;;;-143.19;100.00;53775.09;4952640;28;20213;-75
2022/03/11 01:39:55;;;;;;;1.63;1.15;;;1.10;99.90;;;-143.19;100.00;53775.09;4951277;28;20586;-75
2022/03/11 01:42:23;;;;;;;0.70;0.70;;;1.10;99.90;;;-143.19;100.00;53775.09;4948766;28;20220;-75
2022/03/11 01:44:52;;;;;;;1.35;1.17;;;1.00;99.90;;;-143.19;100.00;53775.09;4971909;28;20213;-75
2022/03/11 01:47:21;;;;;;;1.92;1.30;;;1.70;99.90;;;-143.19;100.00;53775.09;4934280;28;20237;-75
2022/03/11 01:49:49;;;;;;;1.27;1.15;;;1.00;99.90;;;-143.19;100.00;53775.09;4972045;28;20236;-75
2022/03/11 01:52:17;;;;;;;1.42;1.10;;;0.90;99.90;;;-143.19;100.00;53775.09;4954073;28;20705;-75
2022/03/11 01:54:45;;;;;;;0.98;0.80;;;0.90;99.90;;;-143.19;100.00;53775.09;4970747;28;20209;-75
2022/03/11 01:57:13;;;;;;;0.90;0.70;;;0.90;99.90;;;-143.19;100.00;53775.09;4970769;28;20216;-75
2022/03/11 01:59:43;;;;;;;1.10;0.90;;;0.90;99.90;;;-143.19;100.00;53775.09;4953005;28;20237;-75
2022/03/11 02:02:11;;;;;;;1.17;0.98;;;0.90;99.90;;;-143.19;100.00;53775.09;4966382;28;20202;-75
2022/03/11 02:04:41;;;;;;;1.35;1.02;;;1.20;99.90;;;-143.19;100.00;53775.09;4951922;28;20674;-75
2022/03/11 02:07:10;;;;;;;1.80;1.25;;;1.70;99.90;;;-143.19;100.00;53775.09;4953321;28;20232;-75
2022/03/11 02:09:38;;;;;;;1.40;0.90;;;0.90;99.90;;;-143.19;100.00;53775.09;4952543;28;20229;-75
2022/03/11 02:12:07;;;;;;;1.08;0.85;;;0.80;99.90;;;-143.19;100.00;53775.09;4950368;28;20670;-75
2022/03/11 02:14:35;;;;;;;1.63;1.05;;;0.80;99.90;;;-143.19;100.00;53775.09;4967081;28;20221;-75
2022/03/11 02:17:03;;;;;;;1.40;1.00;;;0.80;99.90;;;-143.19;100.00;53775.09;4977911;28;20228;-75
2022/03/11 02:19:31;;;;;;;1.10;0.90;;;0.90;99.90;;;-143.19;100.00;53775.09;4973635;28;20229;-75
2022/03/11 02:22:04;;;;;;;1.83;1.30;;;1.00;99.90;;;-143.19;100.00;53775.09;4950370;28;20217;-76
2022/03/11 02:24:32;;;;;;;1.38;0.98;;;1.10;99.90;;;-143.19;100.00;53775.09;4938189;28;20205;-77
2022/03/11 02:27:00;;;;;;;1.48;1.13;;;1.00;99.90;;;-143.19;100.00;53775.09;4954678;28;20233;-76
2022/03/11 02:29:28;;;;;;;0.95;0.85;;;0.90;99.90;;;-143.19;100.00;53775.09;4967878;28;20585;-77
2022/03/11 02:31:56;;;;;;;1.38;1.02;;;0.90;99.90;;;-143.19;100.00;53775.09;4961936;28;20205;-76
2022/03/11 02:34:24;;;;;;;2.28;1.40;;;0.90;99.90;;;-143.19;100.00;53775.09;4960903;28;20206;-76
2022/03/11 02:36:52;;;;;;;2.42;1.58;;;0.90;99.90;;;-143.19;100.00;53775.09;4965778;28;20209;-76
2022/03/11 02:39:20;;;;;;;2.15;1.38;;;1.00;99.90;;;-143.19;100.00;53775.09;4972123;28;20244;-76
2022/03/11 02:41:51;;;;;;;1.25;0.93;;;1.00;99.90;;;-143.19;100.00;53775.09;4955189;28;20210;-76
2022/03/11 02:44:19;;;;;;;1.15;0.95;;;0.90;99.90;;;-143.19;100.00;53775.09;4940936;28;20217;-76
2022/03/11 02:46:47;;;;;;;1.00;0.88;;;0.90;99.90;;;-143.19;100.00;53775.09;4972176;28;20229;-76
2022/03/11 02:49:15;;;;;;;1.65;1.20;;;0.80;99.90;;;-143.19;100.00;53775.09;4972358;28;20229;-77
2022/03/11 02:51:43;;;;;;;0.80;0.80;;;0.80;99.90;;;-143.19;100.00;53775.09;4972120;28;20222;-76
2022/03/11 02:54:11;;;;;;;0.75;0.70;;;0.70;99.90;;;-143.19;100.00;53775.09;4953867;28;20685;-76
2022/03/11 02:56:39;;;;;;;1.17;1.08;;;0.70;99.90;;;-143.19;100.00;53775.09;4967802;28;20252;-77
2022/03/11 02:59:07;;;;;;;1.00;0.90;;;0.80;99.90;;;-143.19;100.00;53775.09;4947672;28;20236;-76
2022/03/11 03:01:35;;;;;;;3.08;2.10;;;0.90;99.90;;;-143.19;100.00;53775.09;4950342;28;20201;-77
2022/03/11 03:04:03;;;;;;;1.40;1.10;;;0.90;99.90;;;-143.19;100.00;53775.09;4967777;28;20213;-77
2022/03/11 03:06:32;;;;;;;1.67;1.10;;;0.80;99.90;;;-143.19;100.00;53775.09;4963889;28;20233;-76
2022/03/11 03:09:00;;;;;;;4.55;1.80;;;0.70;99.90;;;-143.19;100.00;53775.09;4956047;28;20202;-76
2022/03/11 03:11:28;;;;;;;2.22;1.52;;;0.60;99.90;;;-143.19;100.00;53775.09;4973953;28;20212;-76
2022/03/11 03:13:56;;;;;;;1.60;1.17;;;0.60;99.90;;;-143.19;100.00;53775.09;4973246;28;20214;-77
2022/03/11 03:16:24;;;;;;;1.85;1.17;;;0.50;99.90;;;-143.19;100.00;53775.09;4973271;28;20205;-77
2022/03/11 03:18:53;;;;;;;3.22;1.90;;;0.40;99.90;;;-143.19;100.00;53775.09;4964212;28;20224;-76
2022/03/11 03:21:22;;;;;;;1.65;1.13;;;0.50;99.90;;;-143.19;100.00;53775.09;4971129;28;20216;-76
2022/03/11 03:23:50;;;;;;;2.00;1.42;;;0.60;99.90;;;-143.19;100.00;53775.09;4951956;28;20228;-77
2022/03/11 03:26:18;;;;;;;1.77;1.20;;;0.50;99.90;;;-143.19;100.00;53775.09;4970338;28;20232;-77
2022/03/11 03:28:46;;;;;;;1.50;1.05;;;0.50;99.90;;;-143.19;100.00;53775.09;4971310;28;20213;-76
2022/03/11 03:31:22;;;;;;;1.00;0.82;;;0.40;99.90;;;-143.19;100.00;53775.09;4972387;28;20564;-76
2022/03/11 03:33:51;;;;;;;1.02;0.90;;;0.40;99.90;;;-143.19;100.00;53775.09;4950289;28;20214;-76
2022/03/11 03:36:19;;;;;;;1.67;1.17;;;0.40;99.90;;;-143.19;100.00;53775.09;4955277;28;20212;-76
2022/03/11 03:38:47;;;;;;;1.88;1.17;;;0.40;99.90;;;-143.19;100.00;53775.09;4951349;28;20220;-76
2022/03/11 03:41:15;;;;;;;0.60;0.60;;;0.40;99.90;;;-143.19;100.00;53775.09;4967259;28;20205;-76
2022/03/11 03:43:43;;;;;;;1.15;0.93;;;0.40;99.90;;;-143.19;100.00;53775.09;4966197;28;20210;-76
2022/03/11 03:46:11;;;;;;;2.40;1.52;;;0.40;99.90;;;-143.19;100.00;53775.09;4949207;28;20210;-76
2022/03/11 03:48:39;;;;;;;1.77;1.25;;;0.40;99.90;;;-143.19;100.00;53775.09;4969172;28;20240;-76
2022/03/11 03:51:07;;;;;;;2.25;1.50;;;0.30;99.90;;;-143.19;100.00;53775.09;4969783;28;20229;-77
2022/03/11 03:53:35;;;;;;;1.20;1.00;;;0.20;99.90;;;-143.19;100.00;53775.09;4969388;28;20220;-76
2022/03/11 03:56:04;;;;;;;1.08;0.85;;;0.20;99.90;;;-143.19;100.00;53775.09;4973600;28;20212;-76
2022/03/11 03:58:32;;;;;;;1.20;0.98;;;0.20;99.90;;;-143.19;100.00;53775.09;4972239;28;20227;-76
2022/03/11 04:01:00;;;;;;;3.08;1.80;;;0.20;99.90;;;-143.19;100.00;53775.09;5042393;23;20238;-78
2022/03/11 04:03:28;;;;;;;2.97;1.88;;;0.20;99.90;;;-143.19;100.00;53775.09;4942504;28;20214;-78
2022/03/11 04:06:02;;;;;;;2.10;1.40;;;0.20;99.90;;;-143.19;100.00;53775.09;4934135;29;20214;-78
2022/03/11 04:08:30;;;;;;;2.38;1.52;;;0.20;99.90;;;-143.19;100.00;53775.09;4949982;29;20235;-78
2022/03/11 04:10:58;;;;;;;1.67;1.17;;;0.10;99.90;;;-143.19;100.00;53775.09;4932007;29;20221;-79
2022/03/11 04:13:27;;;;;;;2.13;1.40;;;0.00;99.90;;;-143.19;100.00;53775.09;4923823;28;20223;-78
2022/03/11 04:15:55;;;;;;;2.03;1.38;;;0.00;99.90;;;-143.19;100.00;53775.09;4949405;28;20210;-77
2022/03/11 04:18:24;;;;;;;2.35;1.60;;;0.00;99.90;;;-143.19;100.00;53775.09;4950325;28;20214;-78
2022/03/11 04:20:52;;;;;;;2.25;1.30;;;0.00;99.90;;;-143.19;100.00;53775.09;4926428;29;20218;-78
2022/03/11 04:23:20;;;;;;;1.73;1.23;;;0.00;99.90;;;-143.19;100.00;53775.09;4953655;28;20210;-78
2022/03/11 04:25:48;;;;;;;2.58;1.50;;;0.00;99.90;;;-143.19;100.00;53775.09;4952979;28;20236;-78
2022/03/11 04:28:16;;;;;;;2.40;1.48;;;0.10;99.90;;;-143.19;100.00;53775.09;4933554;29;20245;-78
2022/03/11 04:30:45;;;;;;;1.95;1.30;;;0.10;99.90;;;-143.19;100.00;53775.09;4939808;29;20226;-78
2022/03/11 04:33:13;;;;;;;3.85;2.05;;;0.10;99.90;;;-143.19;100.00;53775.09;4932596;29;20586;-78
2022/03/11 04:35:41;;;;;;;2.38;1.40;;;0.20;99.90;;;-143.19;100.00;53775.09;4955744;28;20221;-78
2022/03/11 04:38:09;;;;;;;1.90;1.27;;;0.30;99.90;;;-143.19;100.00;53775.09;4950511;29;20217;-78
2022/03/11 04:40:37;;;;;;;1.75;1.27;;;0.30;99.90;;;-143.19;100.00;53775.09;4918551;29;20601;-78
2022/03/11 04:43:06;;;;;;;1.20;0.93;;;0.40;99.90;;;-143.19;100.00;53775.09;4936540;28;20210;-78
2022/03/11 04:45:40;;;;;;;2.28;2.08;;;0.30;99.90;;;-143.19;100.00;53775.09;4951456;29;20215;-78
2022/03/11 04:48:08;;;;;;;1.52;1.00;;;0.40;99.90;;;-143.19;100.00;53775.09;4951354;29;20292;-78
2022/03/11 04:50:36;;;;;;;2.10;1.30;;;0.40;99.90;;;-143.19;100.00;53775.09;4951035;28;20225;-77
2022/03/11 04:53:05;;;;;;;1.40;1.05;;;0.30;99.90;;;-143.19;100.00;53775.09;4950816;29;20228;-77
2022/03/11 04:55:33;;;;;;;2.00;1.45;;;0.30;99.90;;;-143.19;100.00;53775.09;4951414;29;20198;-77
2022/03/11 04:58:02;;;;;;;1.33;1.00;;;0.30;99.90;;;-143.19;100.00;53775.09;4949081;28;20213;-77
2022/03/11 05:00:30;;;;;;;2.75;1.70;;;0.30;99.90;;;-143.19;100.00;53775.09;4949299;29;20708;-77
2022/03/11 05:02:59;;;;;;;2.35;1.58;;;0.30;99.90;;;-143.19;100.00;53775.09;4951423;28;20218;-77
2022/03/11 05:05:27;;;;;;;1.80;1.23;;;0.30;99.90;;;-143.19;100.00;53775.09;4932172;29;20218;-78
2022/03/11 05:07:56;;;;;;;1.08;0.85;;;0.20;99.90;;;-143.19;100.00;53775.09;4914140;29;20246;-78
2022/03/11 05:10:24;;;;;;;1.60;1.10;;;0.10;99.90;;;-143.19;100.00;53775.09;4946213;29;20229;-78
2022/03/11 05:12:52;;;;;;;2.28;1.50;;;0.10;99.90;;;-143.19;100.00;53775.09;4918955;29;20206;-78
2022/03/11 05:15:24;;;;;;;3.20;1.85;;;0.00;99.90;;;-143.19;100.00;53775.09;4924930;28;20205;-77
2022/03/11 05:17:53;;;;;;;2.67;1.65;;;0.00;99.90;;;-143.19;100.00;53775.09;4934792;29;20206;-78
2022/03/11 05:20:21;;;;;;;2.33;1.50;;;0.00;99.90;;;-143.19;100.00;53775.09;4950044;28;20222;-78
2022/03/11 05:22:51;;;;;;;1.38;1.00;;;-0.10;99.90;;;-143.19;100.00;53775.09;4952670;29;20214;-77
2022/03/11 05:25:20;;;;;;;1.92;1.23;;;-0.10;99.90;;;-143.19;100.00;53775.09;4953410;28;20209;-78
2022/03/11 05:27:48;;;;;;;1.05;0.90;;;-0.10;99.90;;;-143.19;100.00;53775.09;4944357;28;20225;-79
2022/03/11 05:30:16;;;;;;;2.42;1.60;;;-0.20;99.90;;;-143.19;100.00;53775.09;4954006;28;20222;-78
2022/03/11 05:32:48;;;;;;;2.35;1.98;;;-0.20;99.90;;;-143.19;100.00;53775.09;4950189;29;20210;-78
2022/03/11 05:35:17;;;;;;;2.25;1.50;;;-0.30;99.90;;;-143.19;100.00;53775.09;4953805;28;20202;-82
2022/03/11 05:37:46;;;;;;;1.55;1.13;;;-0.30;99.90;;;-143.19;100.00;53775.09;4958382;28;20198;-78
2022/03/11 05:40:15;;;;;;;1.88;1.27;;;-0.40;99.90;;;-143.19;100.00;53775.09;4936823;28;20225;-77
2022/03/11 05:42:44;;;;;;;2.50;1.65;;;-0.40;99.90;;;-143.19;100.00;53775.09;4932882;29;20210;-77
2022/03/11 05:45:13;;;;;;;2.28;1.55;;;-0.50;99.90;;;-143.19;100.00;53775.09;4945653;29;20206;-77
2022/03/11 05:47:42;;;;;;;1.55;1.20;;;-0.50;99.90;;;-143.19;100.00;53775.09;4960614;28;20528;-77
2022/03/11 05:50:11;;;;;;;2.17;1.48;;;-0.50;99.90;;;-143.19;100.00;53775.09;4964794;28;20229;-78
2022/03/11 05:52:42;;;;;;;1.95;1.33;;;-0.50;99.90;;;-143.19;100.00;53775.09;4935645;28;20210;-81
2022/03/11 05:55:10;;;;;;;3.70;2.35;;;-0.40;99.90;;;-143.19;100.00;53775.09;4953734;28;20198;-81
2022/03/11 05:57:38;;;;;;;2.50;1.40;;;-0.50;99.90;;;-143.19;100.00;53775.09;4952337;29;20205;-78
2022/03/11 06:00:08;;;;;;;2.80;1.70;;;-0.60;99.90;;;-143.19;100.00;53775.09;4954377;28;20698;-78
2022/03/11 06:02:41;;;;;;;2.85;1.75;;;-0.60;99.90;;;-143.19;100.00;53775.09;4953513;28;20209;-78
2022/03/11 06:05:10;;;;;;;1.45;1.08;;;-0.60;99.90;;;-143.19;100.00;53775.09;4954766;28;20205;-77
2022/03/11 06:07:40;;;;;;;1.95;1.30;;;-0.60;99.90;;;-143.19;100.00;53775.09;4956575;28;20213;-78
2022/03/11 06:10:09;;;;;;;1.90;1.23;;;-0.60;99.90;;;-143.19;100.00;53775.09;4938452;28;20230;-78
2022/03/11 06:12:37;;;;;;;2.53;1.50;;;-0.60;99.90;;;-143.19;100.00;53775.09;4935155;28;20195;-78
2022/03/11 06:15:08;;;;;;;3.00;1.67;;;-0.60;99.90;;;-143.19;100.00;53775.09;4934700;29;20218;-77
2022/03/11 06:17:37;;;;;;;2.38;1.42;;;-0.50;99.90;;;-143.19;100.00;53775.09;4935778;29;20205;-78
2022/03/11 06:20:09;;;;;;;2.72;1.67;;;-0.40;99.90;;;-143.19;100.00;53775.09;4950942;28;20574;-78
2022/03/11 06:22:50;;;;;;;2.33;1.40;;;-0.30;99.90;;;-143.19;100.00;53775.09;4956576;28;20220;-77
2022/03/11 06:25:19;;;;;;;2.78;1.55;;;-0.20;99.90;;;-143.19;100.00;53775.09;4944183;29;20201;-78
2022/03/11 06:27:48;;;;;;;2.15;1.30;;;-0.20;99.90;;;-143.19;100.00;53775.09;4948156;28;20209;-79
2022/03/11 06:30:16;;;;;;;1.90;1.30;;;-0.10;99.90;;;-143.19;100.00;53775.09;4955681;28;20237;-79
2022/03/11 06:32:47;;;;;;;3.55;2.00;;;0.00;99.90;;;-143.19;100.00;53775.09;4953355;28;20217;-78
2022/03/11 06:35:17;;;;;;;2.20;1.33;;;0.00;99.90;;;-143.19;100.00;53775.09;4960349;28;20201;-78
2022/03/11 06:37:50;;;;;;;1.15;0.90;;;-0.10;99.90;;;-143.19;100.00;53775.09;4959806;28;20206;-79
2022/03/11 06:40:20;;;;;;;2.38;1.40;;;-0.10;99.90;;;-143.19;100.00;53775.09;4968600;28;20225;-78
2022/03/11 06:42:49;;;;;;;1.35;1.00;;;-0.10;99.90;;;-143.19;100.00;53775.09;4957038;28;20209;-78
2022/03/11 06:45:18;;;;;;;2.40;1.42;;;0.00;99.90;;;-143.19;100.00;53775.09;4969258;28;20207;-78
2022/03/11 06:47:47;;;;;;;3.03;1.70;;;0.20;99.90;;;-143.19;100.00;53775.09;4962118;28;20209;-78
2022/03/11 06:50:18;;;;;;;2.15;1.30;;;0.40;99.90;;;-143.19;100.00;53775.09;4964763;28;20722;-79
2022/03/11 06:52:46;;;;;;;2.28;1.55;;;0.40;99.90;;;-143.19;100.00;53775.09;4960782;28;20214;-78
2022/03/11 06:55:17;;;;;;;2.13;1.38;;;0.50;99.90;;;-143.19;100.00;53775.09;4948791;29;20206;-78
2022/03/11 06:57:45;;;;;;;2.60;1.73;;;0.60;99.90;;;-143.19;100.00;53775.09;4959971;28;20211;-77
2022/03/11 07:00:14;;;;;;;1.38;1.00;;;0.50;99.90;;;-143.19;100.00;53775.09;4955087;28;20257;-78
2022/03/11 07:02:44;;;;;;;0.90;0.77;;;0.50;99.90;;;-143.19;100.00;53775.09;4956779;28;20663;-78
2022/03/11 07:05:13;;;;;;;1.27;0.90;;;0.60;99.90;;;-143.19;100.00;53775.09;4952033;29;20210;-78
2022/03/11 07:07:41;;;;;;;1.73;1.10;;;0.70;99.90;;;-143.19;100.00;53775.09;4955368;29;20659;-78
2022/03/11 07:10:18;;;;;;;2.17;1.30;;;0.90;99.90;;;-143.19;100.00;53775.09;4952573;28;20748;-79
2022/03/11 07:12:46;;;;;;;1.23;0.93;;;1.00;99.90;;;-143.19;100.00;53775.09;4952844;28;20206;-78
2022/03/11 07:15:14;;;;;;;0.85;0.70;;;0.90;99.90;;;-143.19;100.00;53775.09;4956735;28;20233;-78
2022/03/11 07:17:42;;;;;;;1.60;1.13;;;0.90;99.90;;;-143.19;100.00;53775.09;4952203;29;20202;-80
2022/03/11 07:20:10;;;;;;;1.90;1.20;;;1.00;99.90;;;-143.19;100.00;53775.09;4952787;28;20226;-79
2022/03/11 07:22:39;;;;;;;3.00;2.70;;;1.10;99.90;;;-143.19;100.00;53775.09;4953387;29;20210;-78
2022/03/11 07:25:09;;;;;;;2.08;1.27;;;1.30;99.90;;;-143.19;100.00;53775.09;4954633;29;20206;-79
2022/03/11 07:27:38;;;;;;;2.00;1.27;;;1.40;99.90;;;-143.19;100.00;53775.09;4950974;29;20210;-78
2022/03/11 07:30:09;;;;;;;3.20;1.73;;;1.30;99.90;;;-143.19;100.00;53775.09;4951264;28;20250;-78
2022/03/11 07:32:41;;;;;;;1.80;1.23;;;1.30;99.90;;;-143.19;100.00;53775.09;4948460;28;20586;-78
2022/03/11 07:35:09;;;;;;;3.80;2.25;;;1.30;99.90;;;-143.19;100.00;53775.09;4952882;29;20675;-80
2022/03/11 07:37:37;;;;;;;2.58;1.63;;;1.40;99.90;;;-143.19;100.00;53775.09;4950264;29;20202;-78
2022/03/11 07:40:06;;;;;;;2.00;1.33;;;1.40;99.90;;;-143.19;100.00;53775.09;4952229;28;20238;-79
2022/03/11 07:42:36;;;;;;;2.40;1.50;;;1.50;99.90;;;-143.19;100.00;53775.09;4950676;29;20214;-78
2022/03/11 07:45:07;;;;;;;1.77;1.10;;;1.60;99.90;;;-143.19;100.00;53775.09;4953300;28;20218;-78
2022/03/11 07:47:35;;;;;;;1.90;1.30;;;1.60;99.90;;;-143.19;100.00;53775.09;4951546;29;20214;-78
2022/03/11 07:50:05;;;;;;;1.40;1.00;;;1.70;99.90;;;-143.19;100.00;53775.09;4929255;29;20233;-79
2022/03/11 07:52:34;;;;;;;2.70;1.60;;;2.00;99.90;;;-143.19;100.00;53775.09;4952054;29;20719;-78
2022/03/11 07:55:07;;;;;;;1.42;1.00;;;2.10;99.90;;;-143.19;100.00;53775.09;4952265;28;20222;-78
2022/03/11 07:57:36;;;;;;;1.50;1.00;;;2.10;99.90;;;-143.19;100.00;53775.09;4951010;29;20214;-78
2022/03/11 08:00:10;;;;;;;2.10;1.40;;;2.30;99.90;;;-143.19;100.00;53775.09;4951750;28;20257;-77
2022/03/11 08:02:41;;;;;;;1.83;1.15;;;2.60;99.90;;;-143.19;100.00;53775.09;4946990;28;20209;-77
2022/03/11 08:05:16;;;;;;;1.83;1.17;;;2.60;99.90;;;-143.19;100.00;53775.09;4951631;29;20698;-77
2022/03/11 08:07:50;;;;;;;2.38;1.40;;;2.80;99.90;;;-143.19;100.00;53775.09;4952978;29;20220;-78
2022/03/11 08:10:19;;;;;;;3.13;1.80;;;2.90;99.90;;;-143.19;100.00;53775.09;4939720;29;20241;-78
2022/03/11 08:12:48;;;;;;;2.45;1.40;;;2.90;99.90;;;-143.19;100.00;53775.09;4945123;29;20202;-78
2022/03/11 08:15:17;;;;;;;2.15;1.30;;;3.00;99.90;;;-143.19;100.00;53775.09;4945818;28;20566;-78
2022/03/11 08:17:46;;;;;;;1.85;1.23;;;3.10;99.90;;;-143.19;100.00;53775.09;4945980;29;20206;-78
2022/03/11 08:20:15;;;;;;;2.75;1.98;;;3.20;99.90;;;-143.19;100.00;53775.09;4946333;29;20238;-78
2022/03/11 08:22:43;;;;;;;2.42;1.40;;;3.20;99.90;;;-143.19;100.00;53775.09;4945723;29;20198;-78
2022/03/11 08:25:12;;;;;;;2.15;1.30;;;3.30;99.90;;;-143.19;100.00;53775.09;4944062;29;20217;-78
2022/03/11 08:27:41;;;;;;;2.17;1.33;;;3.40;99.90;;;-143.19;100.00;53775.09;4944360;29;20201;-78
2022/03/11 08:30:11;;;;;;;2.70;1.40;;;3.50;99.90;;;-143.19;100.00;53775.09;4941354;29;20233;-78
2022/03/11 08:32:41;;;;;;;3.38;1.70;;;3.60;99.90;;;-143.19;100.00;53775.09;4946878;29;20214;-78
2022/03/11 08:35:14;;;;;;;2.67;1.40;;;3.70;99.90;;;-143.19;100.00;53775.09;4933138;29;20588;-78
2022/03/11 08:37:43;;;;;;;1.83;1.17;;;3.70;99.90;;;-143.19;100.00;53775.09;4947255;29;20213;-78
2022/03/11 08:40:13;;;;;;;2.22;1.30;;;3.70;99.90;;;-143.19;100.00;53775.09;4949906;28;20229;-78
2022/03/11 08:42:42;;;;;;;2.28;1.30;;;3.70;99.90;;;-143.19;100.00;53775.09;4944098;29;20215;-80
2022/03/11 08:45:11;;;;;;;2.53;2.33;;;3.90;99.90;;;-143.19;100.00;53775.09;4928541;29;20671;-77
2022/03/11 08:47:45;;;;;;;2.22;1.25;;;3.90;99.90;;;-143.19;100.00;53775.09;4944448;29;20213;-77
2022/03/11 08:50:14;;;;;;;3.45;1.80;;;4.00;99.90;;;-143.19;100.00;53775.09;4943846;28;20226;-77
2022/03/11 08:52:43;;;;;;;2.15;1.30;;;4.10;99.90;;;-143.19;100.00;53775.09;4929364;29;20213;-78
2022/03/11 08:55:12;;;;;;;2.67;1.42;;;4.10;99.90;;;-143.19;100.00;53775.09;4946896;28;20206;-78
2022/03/11 08:57:48;;;;;;;2.85;1.63;;;4.20;99.90;;;-143.19;100.00;53775.09;4952200;29;20210;-77
2022/03/11 09:00:19;;;;;;;2.45;1.40;;;4.40;99.90;;;-143.19;100.00;53775.09;4951217;29;20237;-77
2022/03/11 09:02:48;;;;;;;2.80;1.40;;;4.50;99.90;;;-143.19;100.00;53775.09;4951259;29;20210;-77
2022/03/11 09:05:18;;;;;;;1.98;1.10;;;4.50;99.90;;;-143.19;100.00;53775.09;4952695;29;20209;-77
2022/03/11 09:07:48;;;;;;;1.45;1.00;;;4.60;99.90;;;-143.19;100.00;53775.09;4950245;29;20210;-78
2022/03/11 09:10:18;;;;;;;1.83;1.15;;;4.60;99.90;;;-143.19;100.00;53775.09;4951616;28;20237;-77
2022/03/11 09:12:47;;;;;;;2.30;1.27;;;4.70;99.90;;;-143.19;100.00;53775.09;4935064;29;20201;-77
2022/03/11 09:15:15;;;;;;;3.15;2.03;;;4.80;99.90;;;-143.19;100.00;53775.09;4934812;28;20202;-77
2022/03/11 09:17:45;;;;;;;2.20;1.30;;;4.80;99.90;;;-143.19;100.00;53775.09;4951116;29;20198;-78
2022/03/11 09:20:14;;;;;;;2.33;1.25;;;4.90;99.90;;;-143.19;100.00;53775.09;4933235;29;20221;-77
2022/03/11 09:22:55;;;;;;;1.90;1.10;;;5.00;99.90;;;-143.19;100.00;53775.09;4951367;29;20202;-77
2022/03/11 09:25:23;;;;;;;2.38;1.27;;;5.10;99.90;;;-143.19;100.00;53775.09;4945078;29;20218;-77
2022/03/11 09:27:52;;;;;;;1.55;1.25;;;5.20;99.90;;;-143.19;100.00;53775.09;4946284;29;20671;-77
2022/03/11 09:30:20;;;;;;;3.03;1.65;;;5.20;99.90;;;-143.19;100.00;53775.09;4940837;29;20234;-78
2022/03/11 09:32:49;;;;;;;2.40;1.83;;;5.40;99.90;;;-143.19;100.00;53775.09;4943552;29;20199;-77
2022/03/11 09:35:17;;;;;;;1.98;1.20;;;5.40;99.90;;;-143.19;100.00;53775.09;4944746;29;20213;-77
2022/03/11 09:37:45;;;;;;;2.67;1.45;;;5.60;99.90;;;-143.19;100.00;53775.09;4943107;29;20218;-77
2022/03/11 09:40:15;;;;;;;1.17;0.93;;;5.80;99.90;;;-143.19;100.00;53775.09;4947146;28;20226;-77
2022/03/11 09:42:44;;;;;;;1.80;1.20;;;5.80;99.90;;;-143.19;100.00;53775.09;4944794;29;20573;-78
2022/03/11 09:45:12;;;;;;;2.00;1.23;;;5.70;99.90;;;-143.19;100.00;53775.09;4945431;29;20206;-80
2022/03/11 09:47:42;;;;;;;1.17;0.80;;;5.80;99.90;;;-143.19;100.00;53775.09;4943481;29;20233;-78
2022/03/11 09:50:10;;;;;;;0.70;0.60;;;5.90;99.90;;;-143.19;100.00;53775.09;4932971;29;20257;-81
2022/03/11 09:52:39;;;;;;;1.30;0.95;;;6.10;99.90;;;-143.19;100.00;53775.09;4950006;29;20216;-79
2022/03/11 09:55:08;;;;;;;0.52;0.52;;;6.20;99.90;;;-143.19;100.00;53775.09;4951640;29;20202;-77
2022/03/11 09:57:37;;;;;;;1.15;0.80;;;6.30;99.90;;;-143.19;100.00;53775.09;4952839;29;20210;-79
2022/03/11 10:00:07;;;;;;;1.08;0.70;;;6.40;99.90;;;-143.19;100.00;53775.09;4952911;29;20237;-78
2022/03/11 10:02:46;;;;;;;0.60;0.60;;;6.60;99.90;;;-143.19;100.00;53775.09;4953181;29;20213;-78
2022/03/11 10:05:16;;;;;;;1.98;1.20;;;6.80;99.90;;;-143.19;100.00;53775.09;4952047;29;20209;-77
2022/03/11 10:08:05;;;;;;;5.22;3.67;;;7.00;99.90;;;-143.19;100.00;53775.09;4938470;29;20213;-76
2022/03/11 10:10:33;;;;;;;0.70;0.60;;;6.90;99.90;;;-143.19;100.00;53775.09;4946570;29;20459;-78
2022/03/11 10:13:11;;;;;;;1.17;0.85;;;7.10;99.90;;;-143.19;100.00;53775.09;4951508;29;20209;-78